Terminal Aerodrome Forecast
Issued by NWS

Home | Current Version | Previous Version | Text Only | Print | Product List | Glossary On
Versions: 1 2 3 4 5 6 7 8 9 10 11 12
000
FTUS46 KSTO 191728
TAFSMF
TAF
KSMF 191728Z 1918/2018 18014KT P6SM SCT015 BKN090
     FM200000 19015KT P6SM VCSH OVC050
     FM200600 19012KT P6SM -RA OVC050
     FM201000 19008KT P6SM BKN100=

USA.gov is the U.S. government's official web portal to all federal, state and local government web resources and services.